Lauderdale, MS (39335)

3:13 AM CDT on August 01, 2015 (GMT -0500)
Bailey, MS (Cook Road) | | Change Station
CLOSE
Current Station
Personal Weather Station
Location: Meridian, MS
Elevation: 424 ft
Nearby Weather Stations

Elev 424 ft 32.46 °N, 88.69 °W | Updated 8 seconds ago

Clear
Clear
73.0 °F
Feels Like 74 °F
N
2.0
Wind Variable Wind from NNE
Gusts 6.0 mph

Today
High -- | Low -- °F
--% Chance of Precip.
Yesterday
High -- | Low -- °F
Precip. -- in
6:09 AM 7:52 PM
Full, 99% visible
Pressure 29.94 in
Visibility 10.0 miles
Clouds Clear
Heat Index 74 °F
Dew Point 65 °F
Humidity 76%
Rainfall 0.00 in
Snow Depth Not available.
UV 0.0 out of 12
Pollen 4.50 out of 12
Air Quality Not available.
Flu Activity Not available.
METAR KMEI 010758Z AUTO 34004KT 10SM CLR 21/17 A2995 RMK AO2 SLP137 T02110172

More Conditions Fewer Conditions

Pressure 29.94 in
Visibility 10.0 miles
Clouds Clear
Heat Index 74 °F
Dew Point 65 °F
Humidity 76%
Rainfall 0.00 in
Snow Depth Not available.
UV 0.0 out of 12
Pollen 4.50 out of 12
Air Quality Not available.
Flu Activity Not available.
METAR KMEI 010758Z AUTO 34004KT 10SM CLR 21/17 A2995 RMK AO2 SLP137 T02110172

More Conditions Fewer Conditions

10-Day Weather Forecast

×

Almanac

Astronomy

Aug. 01, 2015 Rise Set
Actual Time
Civil Twilight
Nautical Twilight
Astronomical Twilight
Moon
Length of Visible Light
Length of Day
Tomorrow will be .
, % of the Moon is Illuminated

Today's Extremes

State Highs State Lows

Community

WunderPhotos

Upload Photos

1,842,905 photos uploaded!

WunderBlogs® & News

Nearby

Air Quality

  Air Quality AQ Index Pollutant
Not available.

Snow Depth

Station Depth Elevation

Earthquake Activity

City Distance Mag. Time & Date
Minimum magnitude displayed is 2.5.

Coastal Water Temperatures

Place Temperature

Stations

Nearby Weather Stations

Station Location Temp. Windchill Dew Point Humidity Wind Precip. Elev Updated Type